Time;durP1;ratioP1;P1;durP2;ratioP2;P2;SDS_P1;SDS_P2;PMS_P1;PMS_P2;Temp;Humidity;BMP_temperature;BMP_pressure;BME280_temperature;BME280_humidity;BME280_pressure;Samples;Min_cycle;Max_cycle;Signal;HPM_P1;HPM_P2
2022/05/10 00:01:58;;;;;;;11.17;3.57;;;;;;;12.88;65.31;101491.19;5975905;28;20121;-67
2022/05/10 00:04:54;;;;;;;13.95;3.85;;;;;;;12.84;65.61;101484.47;5981142;28;20071;-67
2022/05/10 00:07:49;;;;;;;10.73;3.77;;;;;;;12.86;65.86;101485.16;5982744;28;20054;-67
2022/05/10 00:10:45;;;;;;;9.07;3.85;;;;;;;12.80;66.06;101491.03;5986397;28;20027;-67
2022/05/10 00:13:40;;;;;;;11.63;3.70;;;;;;;12.74;66.47;101483.66;5982764;28;20039;-66
2022/05/10 00:16:38;;;;;;;9.27;2.97;;;;;;;12.75;66.57;101479.97;5980715;28;20066;-66
2022/05/10 00:19:34;;;;;;;11.10;4.63;;;;;;;12.69;66.75;101485.88;5995486;28;20050;-66
2022/05/10 00:22:29;;;;;;;9.10;3.70;;;;;;;12.58;67.29;101478.06;5980478;29;20471;-68
2022/05/10 00:25:27;;;;;;;10.97;3.60;;;;;;;12.54;67.32;101468.66;5983243;28;20030;-67
2022/05/10 00:28:22;;;;;;;8.30;3.50;;;;;;;12.51;67.42;101460.94;5981517;28;20047;-66
2022/05/10 00:31:18;;;;;;;7.77;3.13;;;;;;;12.50;67.82;101475.25;5983488;28;20027;-67
2022/05/10 00:34:16;;;;;;;11.57;3.63;;;;;;;12.43;67.88;101463.47;5984475;28;20026;-66
2022/05/10 00:37:12;;;;;;;15.15;4.13;;;;;;;12.45;68.26;101456.19;5977263;28;20348;-67
2022/05/10 00:40:07;;;;;;;9.00;3.55;;;;;;;12.39;68.24;101459.44;5979474;28;20122;-67
2022/05/10 00:43:28;;;;;;;9.52;4.00;;;;;;;12.39;68.48;101459.44;5982490;28;20070;-66
2022/05/10 00:46:27;;;;;;;12.45;3.50;;;;;;;12.23;68.92;101457.28;5979256;28;20047;-68
2022/05/10 00:49:28;;;;;;;9.55;3.70;;;;;;;12.19;69.13;101455.06;5983937;28;20471;-66
2022/05/10 00:53:00;;;;;;;11.32;3.15;;;;;;;12.12;69.44;101448.63;5978321;28;20166;-67
2022/05/10 00:56:06;;;;;;;10.30;3.90;;;;;;;12.17;69.83;101443.72;5980500;28;20074;-67
2022/05/10 00:59:10;;;;;;;12.98;4.13;;;;;;;12.21;69.44;101439.78;5980066;28;20031;-68
2022/05/10 01:02:15;;;;;;;8.68;3.70;;;;;;;12.18;69.45;101437.41;5978456;28;20041;-68
2022/05/10 01:05:30;;;;;;;9.25;3.92;;;;;;;12.38;68.71;101431.13;5980822;28;20083;-68
2022/05/10 01:08:42;;;;;;;29.27;4.45;;;;;;;12.15;69.64;101416.44;5975035;28;20046;-66
2022/05/10 01:11:56;;;;;;;8.90;3.83;;;;;;;12.04;70.18;101424.53;5984594;28;20062;-67
2022/05/10 01:14:59;;;;;;;7.95;3.33;;;;;;;12.19;69.22;101418.69;5978279;28;20093;-67
2022/05/10 01:17:56;;;;;;;8.68;3.63;;;;;;;12.08;69.96;101420.63;5983210;28;20039;-67
2022/05/10 01:20:55;;;;;;;11.23;3.92;;;;;;;12.05;70.21;101420.88;5990081;28;20030;-67
2022/05/10 01:24:25;;;;;;;7.93;3.53;;;;;;;11.95;70.57;101418.22;5978350;28;20035;-68
2022/05/10 01:27:29;;;;;;;7.82;3.30;;;;;;;11.89;70.73;101406.34;5970898;28;20035;-67
2022/05/10 01:30:29;;;;;;;5.70;3.50;;;;;;;11.88;70.44;101399.31;5988134;28;20069;-66
2022/05/10 01:33:41;;;;;;;8.82;3.90;;;;;;;11.86;70.67;101409.25;5978458;29;20060;-68
2022/05/10 01:36:42;;;;;;;8.25;3.40;;;;;;;11.80;71.26;101399.16;5979266;28;20105;-67
2022/05/10 01:39:44;;;;;;;11.10;3.67;;;;;;;11.92;70.66;101392.78;5983235;28;20066;-66
2022/05/10 01:42:51;;;;;;;7.80;4.00;;;;;;;11.77;71.16;101386.16;5978631;28;20471;-68
2022/05/10 01:46:07;;;;;;;8.00;3.67;;;;;;;11.75;71.38;101387.28;5982979;28;20050;-66
2022/05/10 01:49:44;;;;;;;7.57;3.80;;;;;;;11.67;71.69;101385.28;5978058;28;20031;-67
2022/05/10 01:52:56;;;;;;;13.23;4.53;;;;;;;11.63;71.93;101380.38;6010750;28;20070;-66
2022/05/10 01:55:53;;;;;;;9.32;3.92;;;;;;;11.57;72.03;101379.09;5979852;28;20047;-68
2022/05/10 01:58:49;;;;;;;9.75;3.90;;;;;;;11.48;72.61;101377.25;5979226;28;20390;-67
2022/05/10 02:01:44;;;;;;;10.23;3.58;;;;;;;11.50;72.18;101377.09;5983999;28;20032;-66
2022/05/10 02:04:40;;;;;;;7.93;3.55;;;;;;;11.49;72.39;101375.44;5982975;28;20117;-67
2022/05/10 02:07:36;;;;;;;6.90;3.63;;;;;;;11.43;72.66;101366.19;5982678;28;20039;-67
2022/05/10 02:10:38;;;;;;;11.30;4.07;;;;;;;11.41;73.08;101367.31;5984700;28;20043;-68
2022/05/10 02:13:43;;;;;;;9.73;3.95;;;;;;;11.32;73.26;101363.66;5985108;28;20090;-66
2022/05/10 02:16:42;;;;;;;9.45;4.20;;;;;;;11.34;73.33;101373.16;5983982;28;20090;-68
2022/05/10 02:19:45;;;;;;;9.80;4.18;;;;;;;11.38;72.97;101368.41;5983506;28;20118;-67
2022/05/10 02:22:53;;;;;;;8.05;3.47;;;;;;;11.29;73.31;101366.56;5984685;28;20522;-66
2022/05/10 02:25:54;;;;;;;12.30;3.72;;;;;;;11.38;73.03;101356.97;5983075;28;20486;-66
2022/05/10 02:29:00;;;;;;;8.85;4.63;;;;;;;11.40;72.77;101361.16;5982478;29;20039;-67
2022/05/10 02:35:16;;;;;;;10.48;4.22;;;;;;;11.47;72.58;101356.97;5984365;28;20514;-67
2022/05/10 02:38:15;;;;;;;10.93;4.22;;;;;;;11.53;72.40;101358.25;5985508;28;20035;-68
2022/05/10 02:41:19;;;;;;;9.98;4.30;;;;;;;11.42;72.21;101359.19;5985299;28;20487;-67
2022/05/10 02:44:14;;;;;;;9.60;4.45;;;;;;;11.34;73.01;101357.22;5983149;28;20035;-68
2022/05/10 02:47:10;;;;;;;9.60;3.90;;;;;;;11.31;72.82;101353.97;5977415;28;20043;-66
2022/05/10 02:50:13;;;;;;;9.30;3.95;;;;;;;11.22;73.06;101336.22;5976489;28;20097;-67
2022/05/10 02:53:08;;;;;;;13.40;4.38;;;;;;;11.34;73.08;101351.06;5982817;28;20023;-66
2022/05/10 02:56:09;;;;;;;10.47;3.47;;;;;;;11.29;73.24;101353.28;5982903;28;20038;-65
2022/05/10 02:59:08;;;;;;;10.40;4.25;;;;;;;11.32;73.09;101339.75;5982631;28;20278;-67
2022/05/10 03:02:10;;;;;;;10.95;4.63;;;;;;;11.35;73.04;101336.81;5989617;28;20055;-67
2022/05/10 03:05:07;;;;;;;10.98;4.40;;;;;;;11.46;72.87;101341.19;5982494;28;20594;-68
2022/05/10 03:08:02;;;;;;;13.63;4.95;;;;;;;11.46;72.67;101339.38;5982350;28;20051;-66
2022/05/10 03:10:58;;;;;;;13.63;4.47;;;;;;;11.49;72.91;101333.78;5991936;28;20094;-67
2022/05/10 03:13:54;;;;;;;12.77;5.05;;;;;;;11.53;72.79;101329.03;5994313;28;20286;-66
2022/05/10 03:16:49;;;;;;;12.45;5.55;;;;;;;11.50;72.65;101323.97;5979717;28;20141;-68
2022/05/10 03:19:44;;;;;;;8.83;4.53;;;;;;;11.52;72.76;101322.91;5982525;28;20035;-68
2022/05/10 03:22:40;;;;;;;12.47;4.93;;;;;;;11.53;72.64;101323.72;5997688;28;20286;-67
2022/05/10 03:25:35;;;;;;;13.63;5.00;;;;;;;11.60;72.23;101331.03;5982499;28;20031;-67
2022/05/10 03:28:31;;;;;;;12.10;4.72;;;;;;;11.57;72.50;101325.13;5981935;28;20129;-66
2022/05/10 03:31:27;;;;;;;11.23;4.88;;;;;;;11.49;72.53;101317.00;5985218;28;20035;-66
2022/05/10 03:37:36;;;;;;;14.80;5.43;;;;;;;11.66;71.84;101309.19;5986564;28;20121;-67
2022/05/10 03:40:31;;;;;;;11.33;5.07;;;;;;;11.68;71.74;101307.25;5987873;28;20502;-66
2022/05/10 03:43:27;;;;;;;14.07;5.60;;;;;;;11.68;71.75;101301.09;5990779;28;20050;-67
2022/05/10 03:46:22;;;;;;;13.00;5.22;;;;;;;11.70;71.66;101304.47;5988607;28;20035;-66
2022/05/10 03:49:19;;;;;;;11.77;4.60;;;;;;;11.72;71.64;101295.38;5981601;28;20101;-67
2022/05/10 03:52:14;;;;;;;11.95;5.15;;;;;;;11.76;71.69;101295.97;5981261;28;20038;-67
2022/05/10 03:55:13;;;;;;;12.05;5.00;;;;;;;11.80;71.39;101306.16;5981740;28;20039;-65
2022/05/10 03:58:08;;;;;;;13.73;4.50;;;;;;;11.81;71.37;101294.56;5981298;28;20094;-67
2022/05/10 04:01:06;;;;;;;12.67;4.77;;;;;;;11.86;71.37;101302.09;5980861;28;20459;-67
2022/05/10 04:04:02;;;;;;;10.48;4.18;;;;;;;11.86;71.42;101300.28;5981316;28;20023;-68
2022/05/10 04:06:57;;;;;;;12.23;4.13;;;;;;;11.93;70.96;101289.94;5981486;28;20042;-66
2022/05/10 04:09:52;;;;;;;9.30;4.07;;;;;;;11.98;70.87;101293.03;5987882;28;20517;-67
2022/05/10 04:12:48;;;;;;;12.20;4.60;;;;;;;12.06;70.34;101292.31;5980323;28;20034;-66
2022/05/10 04:15:43;;;;;;;13.23;4.65;;;;;;;12.09;70.53;101294.69;5978200;28;20069;-68
2022/05/10 04:18:39;;;;;;;11.97;4.53;;;;;;;12.14;70.25;101290.63;5981197;28;20054;-68
2022/05/10 04:21:34;;;;;;;11.85;4.53;;;;;;;12.25;70.62;101290.47;5980471;28;20420;-68
2022/05/10 04:24:29;;;;;;;13.70;4.00;;;;;;;12.31;69.91;101289.06;5992479;28;20431;-66
2022/05/10 04:27:25;;;;;;;8.47;3.90;;;;;;;12.41;69.77;101289.88;5980994;28;20035;-66
2022/05/10 04:30:21;;;;;;;11.83;4.63;;;;;;;12.47;69.35;101284.00;5980338;28;20646;-65
2022/05/10 04:33:17;;;;;;;9.55;3.58;;;;;;;12.53;68.93;101283.38;5983186;28;20035;-67
2022/05/10 04:36:12;;;;;;;9.68;4.10;;;;;;;12.70;68.57;101285.31;5984347;28;20027;-66
2022/05/10 04:39:07;;;;;;;11.97;3.87;;;;;;;12.94;67.72;101282.13;5985102;28;20031;-67
2022/05/10 04:42:03;;;;;;;8.07;3.97;;;;;;;12.98;67.27;101273.72;5979908;28;20046;-67
2022/05/10 04:44:59;;;;;;;10.38;4.15;;;;;;;13.15;66.97;101284.59;5987622;28;20297;-65
2022/05/10 04:47:54;;;;;;;6.72;3.15;;;;;;;13.29;66.59;101289.41;5980540;28;20054;-66
2022/05/10 04:50:50;;;;;;;10.83;3.63;;;;;;;13.54;65.77;101288.66;5992821;28;20487;-65
2022/05/10 04:53:45;;;;;;;13.55;4.78;;;;;;;13.55;65.46;101277.03;5980276;28;20034;-66
2022/05/10 04:56:41;;;;;;;9.93;3.90;;;;;;;13.73;65.24;101293.84;5980015;28;20199;-67
2022/05/10 04:59:36;;;;;;;9.43;3.97;;;;;;;13.91;64.58;101300.06;5983288;28;20039;-66
2022/05/10 05:02:31;;;;;;;12.10;4.03;;;;;;;14.23;63.39;101286.13;5981264;28;20046;-66
2022/05/10 05:05:27;;;;;;;9.83;4.00;;;;;;;14.14;63.56;101295.91;5980141;28;20028;-66
2022/05/10 05:08:22;;;;;;;10.03;3.73;;;;;;;13.97;64.39;101294.06;5980061;28;20282;-66
2022/05/10 05:11:17;;;;;;;15.33;4.50;;;;;;;13.88;65.15;101300.34;5979094;28;20334;-68
2022/05/10 05:14:14;;;;;;;14.15;4.07;;;;;;;13.95;65.28;101296.06;5979232;28;20152;-66
2022/05/10 05:17:09;;;;;;;9.35;3.88;;;;;;;13.93;65.05;101290.06;5987408;28;20097;-66
2022/05/10 05:20:05;;;;;;;13.60;3.57;;;;;;;14.13;65.23;101285.41;5979146;28;20459;-67
2022/05/10 05:23:01;;;;;;;6.30;3.40;;;;;;;14.34;64.36;101285.06;5978663;28;20110;-67
2022/05/10 05:25:56;;;;;;;11.65;4.00;;;;;;;14.44;64.01;101285.78;5979070;28;20486;-67
2022/05/10 05:28:51;;;;;;;11.87;4.17;;;;;;;14.29;64.38;101274.84;5979975;28;20039;-67
2022/05/10 05:31:47;;;;;;;9.57;4.67;;;;;;;14.27;64.63;101283.00;5978765;28;20114;-66
2022/05/10 05:34:42;;;;;;;9.73;4.18;;;;;;;14.78;63.46;101278.69;5979196;28;20038;-66
2022/05/10 05:37:38;;;;;;;10.33;4.33;;;;;;;14.86;63.76;101276.03;5979351;28;20151;-66
2022/05/10 05:40:34;;;;;;;7.57;3.60;;;;;;;15.57;61.68;101275.63;5979020;28;20039;-67
2022/05/10 05:43:30;;;;;;;12.18;4.15;;;;;;;15.44;62.07;101276.06;5986732;28;20434;-66
2022/05/10 05:46:25;;;;;;;15.15;3.90;;;;;;;15.41;62.54;101271.88;5969838;28;20042;-66
2022/05/10 05:49:21;;;;;;;11.85;4.15;;;;;;;15.57;61.72;101273.81;5977687;28;20034;-66
2022/05/10 05:52:20;;;;;;;10.23;3.90;;;;;;;15.88;61.19;101271.31;5970221;28;20048;-66
2022/05/10 05:55:16;;;;;;;9.27;3.17;;;;;;;16.04;60.99;101269.47;5974321;29;20089;-68
2022/05/10 05:58:11;;;;;;;5.72;2.85;;;;;;;16.31;59.25;101267.44;5979398;28;20489;-66
2022/05/10 06:01:14;;;;;;;7.20;2.77;;;;;;;16.64;58.20;101267.25;5978258;28;20035;-66
2022/05/10 06:04:09;;;;;;;6.53;2.80;;;;;;;16.95;57.10;101261.97;5979340;28;20475;-65
2022/05/10 06:07:05;;;;;;;9.10;2.72;;;;;;;17.30;56.08;101263.28;5978840;28;20039;-67
2022/05/10 06:10:01;;;;;;;7.05;2.63;;;;;;;17.22;56.01;101266.03;5978711;28;20039;-67
2022/05/10 06:13:01;;;;;;;5.80;2.60;;;;;;;17.28;56.73;101271.50;5978146;28;20031;-67
2022/05/10 06:15:56;;;;;;;4.70;2.60;;;;;;;17.26;56.77;101267.31;5978066;28;20535;-68
2022/05/10 06:18:52;;;;;;;7.30;2.73;;;;;;;17.39;56.26;101262.25;5978290;28;20063;-67
2022/05/10 06:21:47;;;;;;;6.47;2.33;;;;;;;17.67;56.06;101268.78;5977099;28;20114;-67
2022/05/10 06:24:43;;;;;;;10.63;2.43;;;;;;;17.91;55.17;101266.94;5977455;28;20427;-67
2022/05/10 06:27:38;;;;;;;12.05;2.22;;;;;;;18.05;54.85;101263.44;5978860;28;20140;-67
2022/05/10 06:30:33;;;;;;;8.37;2.43;;;;;;;18.12;54.60;101264.41;5978471;28;20486;-67
2022/05/10 06:33:28;;;;;;;7.10;2.80;;;;;;;17.81;55.63;101257.28;5979091;28;20024;-66
2022/05/10 06:36:24;;;;;;;7.83;2.73;;;;;;;17.87;54.98;101255.72;5974034;28;20275;-67
2022/05/10 06:39:19;;;;;;;9.17;2.50;;;;;;;17.76;56.24;101259.66;5970040;28;20036;-67
2022/05/10 06:42:21;;;;;;;5.20;2.13;;;;;;;17.91;55.65;101251.66;5968768;29;20376;-66
2022/05/10 06:45:18;;;;;;;4.82;2.55;;;;;;;18.18;55.63;101242.22;5983426;28;20031;-67
2022/05/10 06:48:14;;;;;;;8.13;2.58;;;;;;;18.62;54.62;101245.78;5982862;28;20034;-66
2022/05/10 06:51:09;;;;;;;4.68;2.42;;;;;;;19.02;53.33;101236.41;5982181;28;20110;-67
2022/05/10 06:54:06;;;;;;;4.90;2.30;;;;;;;19.33;51.96;101230.75;5971578;28;20494;-68
2022/05/10 06:57:01;;;;;;;9.55;2.40;;;;;;;19.44;51.91;101224.91;5982659;28;20035;-67
2022/05/10 06:59:56;;;;;;;7.43;2.67;;;;;;;19.74;49.98;101221.06;5982986;28;20066;-67
2022/05/10 07:02:52;;;;;;;3.73;2.07;;;;;;;19.62;51.19;101221.78;5983072;28;20313;-67
2022/05/10 07:05:47;;;;;;;6.37;2.80;;;;;;;19.55;51.02;101211.78;5992638;28;20040;-66
2022/05/10 07:08:43;;;;;;;6.73;2.10;;;;;;;20.10;50.74;101215.59;5975469;28;20319;-66
2022/05/10 07:11:39;;;;;;;3.65;2.10;;;;;;;20.43;49.99;101218.53;5976113;28;20459;-67
2022/05/10 07:14:34;;;;;;;6.30;2.47;;;;;;;20.46;49.08;101219.00;5980185;28;20043;-67
2022/05/10 07:17:29;;;;;;;4.73;2.00;;;;;;;20.32;50.12;101213.69;5982187;28;20105;-67
2022/05/10 07:20:25;;;;;;;6.97;2.30;;;;;;;21.02;48.43;101219.69;5979820;28;20516;-67
2022/05/10 07:23:27;;;;;;;5.50;2.00;;;;;;;21.07;48.00;101219.09;5980099;28;20266;-68
2022/05/10 07:26:22;;;;;;;6.18;2.40;;;;;;;20.95;49.29;101213.44;5982088;28;20282;-67
2022/05/10 07:29:17;;;;;;;4.90;2.50;;;;;;;21.29;48.02;101207.13;5981778;28;20057;-68
2022/05/10 07:32:14;;;;;;;4.93;2.33;;;;;;;21.52;47.00;101222.97;5981740;28;20039;-66
2022/05/10 07:35:10;;;;;;;7.15;2.28;;;;;;;21.63;46.62;101219.66;5982004;28;20039;-68
2022/05/10 07:38:06;;;;;;;4.78;2.20;;;;;;;21.68;46.44;101218.00;5982065;28;20039;-68
2022/05/10 07:41:01;;;;;;;6.95;2.45;;;;;;;22.33;45.16;101198.28;5980956;28;20123;-66
2022/05/10 07:43:57;;;;;;;6.07;2.30;;;;;;;22.10;45.76;101208.69;5976389;28;20051;-67
2022/05/10 07:46:52;;;;;;;5.80;2.60;;;;;;;21.84;45.43;101203.28;5972855;28;20043;-66
2022/05/10 07:49:47;;;;;;;5.57;2.23;;;;;;;22.65;44.42;101204.66;5977025;28;20291;-67
2022/05/10 07:52:44;;;;;;;5.43;2.20;;;;;;;22.73;43.60;101198.19;5979918;28;20042;-66
2022/05/10 07:55:40;;;;;;;5.47;2.72;;;;;;;22.53;43.69;101196.34;5980266;28;20754;-66
2022/05/10 07:58:35;;;;;;;4.93;2.30;;;;;;;22.22;44.63;101204.31;5978984;28;20034;-67
2022/05/10 08:01:31;;;;;;;6.72;2.30;;;;;;;22.04;45.02;101196.00;5981747;28;20053;-66
2022/05/10 08:04:26;;;;;;;4.68;2.33;;;;;;;22.16;45.32;101199.75;5964369;28;20082;-65
2022/05/10 08:07:22;;;;;;;5.30;2.40;;;;;;;22.31;44.75;101199.53;5969675;29;20057;-64
2022/05/10 08:10:18;;;;;;;4.25;2.00;;;;;;;21.98;45.53;101196.88;5973489;28;20048;-66
2022/05/10 08:13:19;;;;;;;6.18;2.40;;;;;;;21.99;45.75;101203.91;5977502;28;20073;-67
2022/05/10 08:16:14;;;;;;;6.18;2.33;;;;;;;21.72;46.25;101204.91;5979846;29;20043;-67
2022/05/10 08:19:09;;;;;;;4.72;2.45;;;;;;;22.04;46.39;101195.19;5974484;28;20051;-67
2022/05/10 08:22:05;;;;;;;7.90;2.80;;;;;;;22.18;45.36;101202.22;5979878;28;20043;-67
2022/05/10 08:25:01;;;;;;;7.03;2.50;;;;;;;22.07;46.01;101192.09;5980149;28;20028;-67
2022/05/10 08:27:56;;;;;;;5.55;2.60;;;;;;;22.09;45.93;101192.69;5980605;28;20074;-67
2022/05/10 08:30:52;;;;;;;4.03;2.33;;;;;;;21.83;46.38;101196.19;5979442;28;20035;-66
2022/05/10 08:33:47;;;;;;;7.57;2.45;;;;;;;22.00;46.34;101193.94;5980523;28;20114;-67
2022/05/10 08:36:45;;;;;;;5.00;2.50;;;;;;;21.86;46.45;101198.47;5980285;28;20055;-66
2022/05/10 08:39:41;;;;;;;6.32;2.60;;;;;;;21.92;46.98;101197.69;5979875;28;20042;-66
2022/05/10 08:42:41;;;;;;;4.23;2.53;;;;;;;22.08;46.94;101202.66;5991902;28;20027;-66
2022/05/10 08:45:40;;;;;;;7.00;2.70;;;;;;;22.58;45.93;101193.03;5978824;28;20274;-67
2022/05/10 08:48:36;;;;;;;5.10;2.75;;;;;;;22.52;46.12;101189.28;5977560;28;20062;-67
2022/05/10 08:51:31;;;;;;;5.15;2.30;;;;;;;22.85;45.95;101199.19;5977313;28;20575;-67
2022/05/10 08:54:29;;;;;;;5.03;2.30;;;;;;;23.08;45.83;101194.06;5978719;28;20035;-66
2022/05/10 08:57:27;;;;;;;5.68;2.50;;;;;;;23.49;44.77;101188.25;5973553;28;20643;-66
2022/05/10 09:00:31;;;;;;;3.28;1.95;;;;;;;23.49;44.36;101180.97;5973655;29;20044;-67
2022/05/10 09:03:30;;;;;;;5.82;2.55;;;;;;;23.67;43.57;101183.72;5978939;29;20043;-67
2022/05/10 09:06:25;;;;;;;8.05;2.70;;;;;;;23.46;44.63;101181.38;5974866;28;20027;-67
2022/05/10 09:09:20;;;;;;;5.13;2.73;;;;;;;23.51;43.97;101178.84;5976719;28;20067;-68
2022/05/10 09:12:20;;;;;;;5.47;2.65;;;;;;;23.82;43.84;101179.88;5974171;28;20024;-68
2022/05/10 09:15:17;;;;;;;8.23;2.63;;;;;;;24.35;42.16;101163.97;5976518;29;20530;-66
2022/05/10 09:18:22;;;;;;;4.13;2.50;;;;;;;24.09;42.26;101163.19;5970768;29;20070;-65
2022/05/10 09:21:31;;;;;;;6.03;2.70;;;;;;;24.34;43.30;101165.84;5972845;28;20428;-67
2022/05/10 09:24:33;;;;;;;6.43;2.72;;;;;;;24.71;41.36;101155.81;5979389;28;20047;-69
2022/05/10 09:27:32;;;;;;;7.22;2.70;;;;;;;25.36;40.20;101148.66;5970694;29;20114;-67
2022/05/10 09:30:31;;;;;;;4.82;2.58;;;;;;;25.10;40.79;101140.91;5977459;29;20039;-68
2022/05/10 09:36:40;;;;;;;5.10;2.70;;;;;;;25.38;39.83;101143.84;5979254;29;20059;-66
2022/05/10 09:39:35;;;;;;;5.40;2.42;;;;;;;24.90;40.54;101146.63;5978911;28;20463;-68
2022/05/10 09:42:32;;;;;;;5.40;2.47;;;;;;;24.45;41.38;101145.28;5978581;28;20027;-67
2022/05/10 09:45:27;;;;;;;4.10;2.65;;;;;;;24.10;42.33;101135.03;5984173;28;20110;-65
2022/05/10 09:48:24;;;;;;;7.10;3.10;;;;;;;23.97;42.70;101139.72;5976520;28;20038;-66
2022/05/10 09:51:27;;;;;;;4.82;2.67;;;;;;;23.85;43.17;101136.09;5965804;29;20032;-66
2022/05/10 09:54:30;;;;;;;5.65;2.78;;;;;;;23.80;42.96;101127.78;5964642;29;20058;-65
2022/05/10 09:57:31;;;;;;;7.13;2.80;;;;;;;24.08;43.55;101130.88;5975256;29;20037;-65
2022/05/10 10:00:43;;;;;;;5.55;2.80;;;;;;;24.18;43.74;101117.66;5974817;28;20034;-66
2022/05/10 10:03:41;;;;;;;4.13;2.40;;;;;;;24.34;42.63;101125.19;5973269;28;20035;-65
2022/05/10 10:06:36;;;;;;;4.82;2.67;;;;;;;24.73;41.83;101113.81;5973816;28;20033;-66
2022/05/10 10:09:36;;;;;;;4.37;2.80;;;;;;;24.51;42.18;101112.69;5978733;28;20035;-66
2022/05/10 10:12:36;;;;;;;5.70;2.95;;;;;;;24.14;43.13;101102.88;5978262;28;20027;-65
2022/05/10 10:15:40;;;;;;;5.78;3.10;;;;;;;24.72;41.99;101116.78;5973981;28;20042;-67
2022/05/10 10:19:02;;;;;;;6.53;3.15;;;;;;;25.43;40.69;101111.38;5977679;28;20066;-67
2022/05/10 10:22:03;;;;;;;5.53;3.13;;;;;;;25.41;39.62;101110.81;5981794;28;20051;-66
2022/05/10 10:25:05;;;;;;;9.30;2.88;;;;;;;25.36;40.12;101107.94;5983317;28;20058;-67
2022/05/10 10:28:18;;;;;;;8.52;2.97;;;;;;;25.30;40.04;101103.44;5978280;28;20039;-66
2022/05/10 10:31:20;;;;;;;7.75;3.00;;;;;;;24.83;41.55;101091.63;5976099;29;20056;-66
2022/05/10 10:34:42;;;;;;;5.10;2.65;;;;;;;24.44;42.22;101098.34;5981517;28;20471;-65
2022/05/10 10:37:41;;;;;;;4.50;2.90;;;;;;;24.49;42.08;101089.53;5966404;29;20071;-66
2022/05/10 10:40:44;;;;;;;4.93;2.95;;;;;;;25.43;40.97;101082.34;5980499;29;20039;-67
2022/05/10 10:43:49;;;;;;;6.65;3.30;;;;;;;25.07;40.50;101068.09;5981599;28;20032;-65
2022/05/10 10:46:53;;;;;;;6.53;3.42;;;;;;;25.12;41.50;101079.91;5979690;28;20129;-65
2022/05/10 10:50:08;;;;;;;6.72;3.00;;;;;;;25.66;40.31;101070.69;5973260;28;20036;-65
2022/05/10 10:53:05;;;;;;;6.47;3.10;;;;;;;25.96;37.41;101060.50;5965769;28;20472;-66
2022/05/10 10:56:29;;;;;;;7.18;2.90;;;;;;;25.78;39.03;101062.53;5979083;28;20043;-66
2022/05/10 10:59:48;;;;;;;6.32;2.90;;;;;;;25.95;37.91;101050.69;5969251;28;20071;-66
2022/05/10 11:03:02;;;;;;;6.30;2.95;;;;;;;25.73;38.49;101044.22;5970077;29;20484;-67
2022/05/10 11:06:26;;;;;;;4.28;2.92;;;;;;;25.57;39.75;101046.81;5983750;28;20489;-65
2022/05/10 11:09:37;;;;;;;7.78;3.08;;;;;;;25.23;39.88;101043.81;5979562;28;20395;-65
2022/05/10 11:12:49;;;;;;;4.13;3.10;;;;;;;25.58;39.95;101040.31;5968380;29;20497;-66
2022/05/10 11:16:03;;;;;;;11.20;3.30;;;;;;;26.06;38.90;101023.72;5990665;28;20124;-66
2022/05/10 11:19:10;;;;;;;5.72;3.17;;;;;;;26.25;38.06;101006.22;5968105;29;20040;-65
2022/05/10 11:22:41;;;;;;;5.47;3.30;;;;;;;26.37;38.54;101013.25;5963388;28;20447;-65
2022/05/10 11:25:51;;;;;;;5.85;2.80;;;;;;;26.29;37.88;101007.38;5973659;29;20054;-65
2022/05/10 11:29:14;;;;;;;6.97;3.35;;;;;;;26.67;37.85;101013.00;5982147;28;20031;-66
2022/05/10 11:32:47;;;;;;;5.53;2.80;;;;;;;26.17;36.83;101014.75;5976351;28;20059;-66
2022/05/10 11:36:16;;;;;;;6.03;2.90;;;;;;;26.09;36.84;101002.31;5978752;28;20510;-66
2022/05/10 11:39:31;;;;;;;5.30;3.40;;;;;;;26.81;35.71;100992.59;5979656;28;20125;-66
2022/05/10 11:42:44;;;;;;;7.88;3.10;;;;;;;27.02;35.74;100999.22;5976663;29;20035;-66
2022/05/10 11:46:01;;;;;;;4.32;3.05;;;;;;;26.63;35.00;101001.75;5980096;28;20086;-66
2022/05/10 11:49:15;;;;;;;9.93;3.50;;;;;;;26.33;35.09;100995.78;5978928;28;20028;-65
2022/05/10 11:52:28;;;;;;;5.30;3.38;;;;;;;26.36;36.30;100984.38;5978944;28;20066;-66
2022/05/10 11:55:59;;;;;;;6.47;3.60;;;;;;;26.19;35.71;100980.81;5976580;28;20591;-65
2022/05/10 11:58:54;;;;;;;;;;;;;;;26.11;35.90;100974.88;5978579;28;20031;-67
2022/05/10 12:01:54;;;;;;;4.17;2.70;;;;;;;26.42;35.75;100972.53;5980075;28;19949;-66
2022/05/10 12:05:09;;;;;;;5.47;3.22;;;;;;;26.19;36.80;100963.66;5980319;28;20039;-66
2022/05/10 12:08:20;;;;;;;5.35;2.95;;;;;;;26.34;36.25;100970.22;5980959;29;20115;-67
2022/05/10 12:11:27;;;;;;;4.78;3.45;;;;;;;26.29;37.04;100961.13;5992744;28;20093;-66
2022/05/10 12:21:31;;;;;;;4.97;2.80;;;;;;;26.63;33.82;100947.34;5975447;29;20039;-65
2022/05/10 12:24:28;;;;;;;6.22;2.75;;;;;;;26.88;33.65;100949.69;5979423;28;20035;-66
2022/05/10 12:27:26;;;;;;;6.22;2.80;;;;;;;26.96;33.79;100952.00;5978462;28;20034;-66
2022/05/10 12:30:31;;;;;;;5.07;2.90;;;;;;;27.18;33.07;100939.28;5979855;28;20050;-66
2022/05/10 12:33:31;;;;;;;4.15;2.85;;;;;;;27.13;33.77;100930.22;5976235;28;20509;-66
2022/05/10 12:36:31;;;;;;;5.72;3.42;;;;;;;27.50;32.49;100925.91;5980415;28;20031;-67
2022/05/10 12:39:31;;;;;;;7.47;3.45;;;;;;;27.14;34.52;100916.38;5975017;28;20031;-66
2022/05/10 12:42:39;;;;;;;5.53;3.17;;;;;;;27.40;34.74;100925.75;5970928;28;20031;-66
2022/05/10 12:45:41;;;;;;;4.85;3.03;;;;;;;27.03;33.80;100930.91;5973001;28;20545;-66
2022/05/10 12:49:01;;;;;;;4.47;2.90;;;;;;;26.79;33.92;100928.59;5961903;28;20039;-66
2022/05/10 12:52:20;;;;;;;6.47;3.35;;;;;;;26.88;32.58;100911.59;5967774;28;20063;-66
2022/05/10 12:55:34;;;;;;;4.28;2.90;;;;;;;26.63;33.77;100916.59;5986855;28;20039;-66
2022/05/10 12:58:34;;;;;;;7.20;3.20;;;;;;;26.57;34.29;100902.09;5979971;28;20043;-66
2022/05/10 13:01:32;;;;;;;4.43;3.25;;;;;;;26.56;35.01;100896.88;5978225;28;20039;-67
2022/05/10 13:04:40;;;;;;;6.85;3.28;;;;;;;27.00;35.07;100884.28;5994279;28;20045;-67
2022/05/10 13:08:13;;;;;;;5.25;3.28;;;;;;;27.67;33.87;100884.94;5976619;28;20059;-67
2022/05/10 13:11:08;;;;;;;4.57;2.97;;;;;;;27.12;33.68;100885.81;5970622;29;20059;-66
2022/05/10 13:14:04;;;;;;;5.40;3.25;;;;;;;26.91;34.16;100875.69;5977125;28;20042;-67
2022/05/10 13:17:00;;;;;;;6.88;3.10;;;;;;;27.36;33.95;100869.25;5995855;28;20050;-65
2022/05/10 13:19:57;;;;;;;5.85;3.20;;;;;;;27.29;34.51;100866.72;5976588;28;20494;-65
2022/05/10 13:23:01;;;;;;;6.53;3.67;;;;;;;27.23;34.32;100847.84;5973665;28;20637;-66
2022/05/10 13:26:05;;;;;;;5.50;3.33;;;;;;;26.91;35.20;100850.38;5984314;28;20031;-66
2022/05/10 13:29:01;;;;;;;5.15;3.17;;;;;;;25.89;36.07;100847.81;5977426;28;20082;-66
2022/05/10 13:31:56;;;;;;;7.53;3.40;;;;;;;25.97;36.66;100844.69;5982477;28;20030;-67
2022/05/10 13:35:00;;;;;;;4.17;2.80;;;;;;;26.01;36.50;100834.97;5973063;28;20062;-67
2022/05/10 13:37:57;;;;;;;5.85;3.22;;;;;;;26.36;36.38;100836.69;5975328;28;20546;-66
2022/05/10 13:41:02;;;;;;;7.25;3.40;;;;;;;26.39;35.65;100825.34;5973244;29;20094;-66
2022/05/10 13:44:05;;;;;;;6.32;3.80;;;;;;;26.81;35.24;100832.00;5977721;29;20491;-66
2022/05/10 13:47:02;;;;;;;5.95;3.30;;;;;;;26.08;35.70;100814.97;5966140;28;20038;-66
2022/05/10 13:49:59;;;;;;;6.47;3.50;;;;;;;26.36;35.95;100817.66;5978076;28;20587;-66
2022/05/10 13:52:57;;;;;;;9.73;3.25;;;;;;;26.56;35.68;100816.06;5977962;29;20043;-65
2022/05/10 13:55:54;;;;;;;6.13;3.55;;;;;;;26.89;35.14;100812.53;5975585;28;20043;-65
2022/05/10 13:58:50;;;;;;;5.28;3.22;;;;;;;27.31;34.59;100806.53;5979457;28;20034;-66
2022/05/10 14:01:47;;;;;;;4.90;2.92;;;;;;;27.28;34.61;100807.03;5970984;28;20035;-67
2022/05/10 14:04:47;;;;;;;6.15;3.17;;;;;;;26.80;34.43;100797.69;5980086;28;20067;-68
2022/05/10 14:07:47;;;;;;;5.80;3.10;;;;;;;26.48;34.47;100788.47;5968098;28;20043;-66
2022/05/10 14:10:45;;;;;;;5.35;3.17;;;;;;;27.25;33.63;100783.88;5968846;28;20050;-66
2022/05/10 14:13:53;;;;;;;4.63;3.13;;;;;;;27.95;32.78;100786.56;5979106;28;20027;-66
2022/05/10 14:16:48;;;;;;;7.53;3.17;;;;;;;27.99;32.29;100776.78;5976709;28;20027;-65